sensor_id;sensor_type;location;lat;lon;timestamp;P1;durP1;ratioP1;P2;durP2;ratioP2
6251;SDS011;3159;52.414;9.784;2023-01-10T00:01:16;16.57;;;9.47;;
6251;SDS011;3159;52.414;9.784;2023-01-10T00:03:42;17.27;;;9.13;;
6251;SDS011;3159;52.414;9.784;2023-01-10T00:06:09;19.93;;;9.20;;
6251;SDS011;3159;52.414;9.784;2023-01-10T00:08:36;17.80;;;8.90;;
6251;SDS011;3159;52.414;9.784;2023-01-10T00:11:05;15.73;;;9.40;;
6251;SDS011;3159;52.414;9.784;2023-01-10T00:13:51;18.70;;;9.43;;
6251;SDS011;3159;52.414;9.784;2023-01-10T00:16:17;15.27;;;9.23;;
6251;SDS011;3159;52.414;9.784;2023-01-10T00:18:44;15.93;;;8.87;;
6251;SDS011;3159;52.414;9.784;2023-01-10T00:21:11;15.47;;;8.90;;
6251;SDS011;3159;52.414;9.784;2023-01-10T00:23:38;15.63;;;9.23;;
6251;SDS011;3159;52.414;9.784;2023-01-10T00:26:07;14.07;;;9.60;;
6251;SDS011;3159;52.414;9.784;2023-01-10T00:28:35;15.40;;;9.37;;
6251;SDS011;3159;52.414;9.784;2023-01-10T00:31:03;18.13;;;9.70;;
6251;SDS011;3159;52.414;9.784;2023-01-10T00:33:31;17.93;;;10.40;;
6251;SDS011;3159;52.414;9.784;2023-01-10T00:35:58;18.37;;;9.73;;
6251;SDS011;3159;52.414;9.784;2023-01-10T00:38:25;20.70;;;10.63;;
6251;SDS011;3159;52.414;9.784;2023-01-10T00:40:52;16.47;;;9.33;;
6251;SDS011;3159;52.414;9.784;2023-01-10T00:43:21;15.97;;;10.30;;
6251;SDS011;3159;52.414;9.784;2023-01-10T00:46:05;18.63;;;8.97;;
6251;SDS011;3159;52.414;9.784;2023-01-10T00:48:32;14.47;;;9.47;;
6251;SDS011;3159;52.414;9.784;2023-01-10T00:50:59;14.73;;;9.20;;
6251;SDS011;3159;52.414;9.784;2023-01-10T00:53:26;13.27;;;9.10;;
6251;SDS011;3159;52.414;9.784;2023-01-10T00:55:53;16.63;;;9.23;;
6251;SDS011;3159;52.414;9.784;2023-01-10T00:58:22;18.00;;;9.43;;
6251;SDS011;3159;52.414;9.784;2023-01-10T01:00:49;14.77;;;9.40;;
6251;SDS011;3159;52.414;9.784;2023-01-10T01:03:17;19.97;;;9.97;;
6251;SDS011;3159;52.414;9.784;2023-01-10T01:05:45;19.23;;;9.47;;
6251;SDS011;3159;52.414;9.784;2023-01-10T01:08:13;16.50;;;10.07;;
6251;SDS011;3159;52.414;9.784;2023-01-10T01:10:41;13.73;;;8.90;;
6251;SDS011;3159;52.414;9.784;2023-01-10T01:13:08;13.67;;;9.53;;
6251;SDS011;3159;52.414;9.784;2023-01-10T01:15:39;15.60;;;9.50;;
6251;SDS011;3159;52.414;9.784;2023-01-10T01:18:06;16.93;;;10.30;;
6251;SDS011;3159;52.414;9.784;2023-01-10T01:20:33;16.33;;;9.97;;
6251;SDS011;3159;52.414;9.784;2023-01-10T01:22:59;18.83;;;9.77;;
6251;SDS011;3159;52.414;9.784;2023-01-10T01:25:26;15.40;;;9.93;;
6251;SDS011;3159;52.414;9.784;2023-01-10T01:27:53;17.20;;;9.87;;
6251;SDS011;3159;52.414;9.784;2023-01-10T01:30:20;17.83;;;9.63;;
6251;SDS011;3159;52.414;9.784;2023-01-10T01:32:48;19.60;;;10.60;;
6251;SDS011;3159;52.414;9.784;2023-01-10T01:35:15;17.27;;;10.40;;
6251;SDS011;3159;52.414;9.784;2023-01-10T01:37:42;16.37;;;10.60;;
6251;SDS011;3159;52.414;9.784;2023-01-10T01:40:10;16.23;;;10.20;;
6251;SDS011;3159;52.414;9.784;2023-01-10T01:42:39;15.67;;;9.87;;
6251;SDS011;3159;52.414;9.784;2023-01-10T01:48:15;17.57;;;10.40;;
6251;SDS011;3159;52.414;9.784;2023-01-10T01:50:53;17.03;;;9.67;;
6251;SDS011;3159;52.414;9.784;2023-01-10T01:53:30;15.23;;;9.33;;
6251;SDS011;3159;52.414;9.784;2023-01-10T01:56:02;14.03;;;9.13;;
6251;SDS011;3159;52.414;9.784;2023-01-10T01:58:34;16.07;;;9.20;;
6251;SDS011;3159;52.414;9.784;2023-01-10T02:01:06;12.50;;;9.43;;
6251;SDS011;3159;52.414;9.784;2023-01-10T02:03:35;13.07;;;9.27;;
6251;SDS011;3159;52.414;9.784;2023-01-10T02:06:05;16.40;;;9.90;;
6251;SDS011;3159;52.414;9.784;2023-01-10T02:08:32;16.97;;;10.57;;
6251;SDS011;3159;52.414;9.784;2023-01-10T02:11:01;16.30;;;9.13;;
6251;SDS011;3159;52.414;9.784;2023-01-10T02:13:32;11.53;;;9.00;;
6251;SDS011;3159;52.414;9.784;2023-01-10T02:16:03;15.07;;;9.03;;
6251;SDS011;3159;52.414;9.784;2023-01-10T02:18:30;16.40;;;9.93;;
6251;SDS011;3159;52.414;9.784;2023-01-10T02:21:05;12.73;;;8.40;;
6251;SDS011;3159;52.414;9.784;2023-01-10T02:23:54;14.83;;;8.70;;
6251;SDS011;3159;52.414;9.784;2023-01-10T02:26:44;12.93;;;8.33;;
6251;SDS011;3159;52.414;9.784;2023-01-10T02:29:31;14.27;;;8.33;;
6251;SDS011;3159;52.414;9.784;2023-01-10T02:32:23;13.60;;;8.50;;
6251;SDS011;3159;52.414;9.784;2023-01-10T02:35:04;14.27;;;8.33;;
6251;SDS011;3159;52.414;9.784;2023-01-10T02:37:42;12.87;;;8.27;;
6251;SDS011;3159;52.414;9.784;2023-01-10T02:40:18;12.87;;;8.57;;
6251;SDS011;3159;52.414;9.784;2023-01-10T02:42:51;13.57;;;7.57;;
6251;SDS011;3159;52.414;9.784;2023-01-10T02:45:24;13.73;;;7.43;;
6251;SDS011;3159;52.414;9.784;2023-01-10T02:47:56;15.10;;;7.60;;
6251;SDS011;3159;52.414;9.784;2023-01-10T02:50:27;10.63;;;7.03;;
6251;SDS011;3159;52.414;9.784;2023-01-10T02:52:56;12.80;;;7.07;;
6251;SDS011;3159;52.414;9.784;2023-01-10T02:55:32;15.67;;;6.67;;
6251;SDS011;3159;52.414;9.784;2023-01-10T02:58:08;14.43;;;7.10;;
6251;SDS011;3159;52.414;9.784;2023-01-10T03:00:47;13.27;;;7.00;;
6251;SDS011;3159;52.414;9.784;2023-01-10T03:03:32;14.90;;;6.80;;
6251;SDS011;3159;52.414;9.784;2023-01-10T03:06:06;11.20;;;6.37;;
6251;SDS011;3159;52.414;9.784;2023-01-10T03:08:46;12.37;;;6.57;;
6251;SDS011;3159;52.414;9.784;2023-01-10T03:11:17;11.03;;;5.63;;
6251;SDS011;3159;52.414;9.784;2023-01-10T03:14:04;12.20;;;5.80;;
6251;SDS011;3159;52.414;9.784;2023-01-10T03:16:35;13.17;;;6.27;;
6251;SDS011;3159;52.414;9.784;2023-01-10T03:19:06;10.87;;;5.00;;
6251;SDS011;3159;52.414;9.784;2023-01-10T03:21:35;12.07;;;4.80;;
6251;SDS011;3159;52.414;9.784;2023-01-10T03:24:04;6.90;;;4.07;;
6251;SDS011;3159;52.414;9.784;2023-01-10T03:26:39;8.07;;;4.10;;
6251;SDS011;3159;52.414;9.784;2023-01-10T03:29:11;9.07;;;4.37;;
6251;SDS011;3159;52.414;9.784;2023-01-10T03:31:44;10.50;;;3.87;;
6251;SDS011;3159;52.414;9.784;2023-01-10T03:34:17;10.63;;;3.80;;
6251;SDS011;3159;52.414;9.784;2023-01-10T03:36:49;9.43;;;4.27;;
6251;SDS011;3159;52.414;9.784;2023-01-10T03:39:25;10.20;;;4.43;;
6251;SDS011;3159;52.414;9.784;2023-01-10T03:42:01;12.47;;;3.90;;
6251;SDS011;3159;52.414;9.784;2023-01-10T03:44:36;9.17;;;4.03;;
6251;SDS011;3159;52.414;9.784;2023-01-10T03:47:10;9.17;;;4.00;;
6251;SDS011;3159;52.414;9.784;2023-01-10T03:49:44;11.20;;;3.93;;
6251;SDS011;3159;52.414;9.784;2023-01-10T03:52:15;11.17;;;4.33;;
6251;SDS011;3159;52.414;9.784;2023-01-10T03:54:44;8.77;;;3.47;;
6251;SDS011;3159;52.414;9.784;2023-01-10T03:57:16;10.40;;;4.27;;
6251;SDS011;3159;52.414;9.784;2023-01-10T03:59:44;9.27;;;3.50;;
6251;SDS011;3159;52.414;9.784;2023-01-10T04:02:12;7.63;;;3.40;;
6251;SDS011;3159;52.414;9.784;2023-01-10T04:04:38;8.93;;;3.20;;
6251;SDS011;3159;52.414;9.784;2023-01-10T04:07:06;9.23;;;3.93;;
6251;SDS011;3159;52.414;9.784;2023-01-10T04:09:33;8.07;;;3.73;;
6251;SDS011;3159;52.414;9.784;2023-01-10T04:12:00;10.43;;;2.90;;
6251;SDS011;3159;52.414;9.784;2023-01-10T04:14:27;8.63;;;3.63;;
6251;SDS011;3159;52.414;9.784;2023-01-10T04:16:56;10.53;;;3.90;;
6251;SDS011;3159;52.414;9.784;2023-01-10T04:19:23;12.40;;;3.47;;
6251;SDS011;3159;52.414;9.784;2023-01-10T04:21:50;9.40;;;3.53;;
6251;SDS011;3159;52.414;9.784;2023-01-10T04:24:18;6.60;;;3.37;;
6251;SDS011;3159;52.414;9.784;2023-01-10T04:26:45;10.77;;;3.73;;
6251;SDS011;3159;52.414;9.784;2023-01-10T04:29:11;7.77;;;3.37;;
6251;SDS011;3159;52.414;9.784;2023-01-10T04:31:38;11.27;;;3.60;;
6251;SDS011;3159;52.414;9.784;2023-01-10T04:34:05;7.20;;;3.63;;
6251;SDS011;3159;52.414;9.784;2023-01-10T04:36:32;8.77;;;4.13;;
6251;SDS011;3159;52.414;9.784;2023-01-10T04:39:00;9.57;;;3.73;;
6251;SDS011;3159;52.414;9.784;2023-01-10T04:41:28;12.67;;;3.50;;
6251;SDS011;3159;52.414;9.784;2023-01-10T04:43:55;10.30;;;4.10;;
6251;SDS011;3159;52.414;9.784;2023-01-10T04:46:22;9.90;;;3.50;;
6251;SDS011;3159;52.414;9.784;2023-01-10T04:48:48;8.20;;;3.70;;
6251;SDS011;3159;52.414;9.784;2023-01-10T04:51:16;12.20;;;3.90;;
6251;SDS011;3159;52.414;9.784;2023-01-10T04:53:43;11.60;;;4.60;;
6251;SDS011;3159;52.414;9.784;2023-01-10T04:56:13;14.67;;;5.00;;
6251;SDS011;3159;52.414;9.784;2023-01-10T04:58:43;10.30;;;4.13;;
6251;SDS011;3159;52.414;9.784;2023-01-10T05:01:11;14.90;;;4.63;;
6251;SDS011;3159;52.414;9.784;2023-01-10T05:03:40;13.60;;;4.57;;
6251;SDS011;3159;52.414;9.784;2023-01-10T05:06:06;12.53;;;3.90;;
6251;SDS011;3159;52.414;9.784;2023-01-10T05:08:34;14.13;;;5.03;;
6251;SDS011;3159;52.414;9.784;2023-01-10T05:11:01;16.00;;;4.73;;
6251;SDS011;3159;52.414;9.784;2023-01-10T05:13:28;15.13;;;4.63;;
6251;SDS011;3159;52.414;9.784;2023-01-10T05:15:56;9.60;;;4.50;;
6251;SDS011;3159;52.414;9.784;2023-01-10T05:18:23;9.73;;;4.33;;
6251;SDS011;3159;52.414;9.784;2023-01-10T05:20:50;16.40;;;4.93;;
6251;SDS011;3159;52.414;9.784;2023-01-10T05:23:17;14.23;;;4.70;;
6251;SDS011;3159;52.414;9.784;2023-01-10T05:25:44;14.60;;;4.30;;
6251;SDS011;3159;52.414;9.784;2023-01-10T05:28:11;14.93;;;4.13;;
6251;SDS011;3159;52.414;9.784;2023-01-10T05:30:37;14.40;;;4.37;;
6251;SDS011;3159;52.414;9.784;2023-01-10T05:33:05;9.60;;;4.27;;
6251;SDS011;3159;52.414;9.784;2023-01-10T05:35:32;12.97;;;4.50;;
6251;SDS011;3159;52.414;9.784;2023-01-10T05:37:59;12.13;;;4.53;;
6251;SDS011;3159;52.414;9.784;2023-01-10T05:40:26;15.80;;;4.90;;
6251;SDS011;3159;52.414;9.784;2023-01-10T05:42:53;14.67;;;4.70;;
6251;SDS011;3159;52.414;9.784;2023-01-10T05:45:20;13.37;;;4.23;;
6251;SDS011;3159;52.414;9.784;2023-01-10T05:47:46;13.20;;;3.90;;
6251;SDS011;3159;52.414;9.784;2023-01-10T05:50:15;14.27;;;4.90;;
6251;SDS011;3159;52.414;9.784;2023-01-10T05:52:42;13.53;;;5.23;;
6251;SDS011;3159;52.414;9.784;2023-01-10T05:55:09;12.97;;;4.37;;
6251;SDS011;3159;52.414;9.784;2023-01-10T05:57:35;11.00;;;4.43;;
6251;SDS011;3159;52.414;9.784;2023-01-10T06:00:03;16.50;;;4.47;;
6251;SDS011;3159;52.414;9.784;2023-01-10T06:02:33;16.70;;;4.60;;
6251;SDS011;3159;52.414;9.784;2023-01-10T06:05:00;16.97;;;4.37;;
6251;SDS011;3159;52.414;9.784;2023-01-10T06:07:28;14.80;;;5.20;;
6251;SDS011;3159;52.414;9.784;2023-01-10T06:09:56;16.23;;;5.03;;
6251;SDS011;3159;52.414;9.784;2023-01-10T06:12:23;15.63;;;5.27;;
6251;SDS011;3159;52.414;9.784;2023-01-10T06:14:49;10.33;;;4.67;;
6251;SDS011;3159;52.414;9.784;2023-01-10T06:17:16;12.43;;;4.60;;
6251;SDS011;3159;52.414;9.784;2023-01-10T06:19:43;17.93;;;5.17;;
6251;SDS011;3159;52.414;9.784;2023-01-10T06:22:09;12.03;;;4.60;;
6251;SDS011;3159;52.414;9.784;2023-01-10T06:24:38;12.50;;;5.00;;
6251;SDS011;3159;52.414;9.784;2023-01-10T06:27:06;10.53;;;4.53;;
6251;SDS011;3159;52.414;9.784;2023-01-10T06:29:33;16.60;;;5.20;;
6251;SDS011;3159;52.414;9.784;2023-01-10T06:31:59;13.80;;;4.23;;
6251;SDS011;3159;52.414;9.784;2023-01-10T06:34:26;11.37;;;4.00;;
6251;SDS011;3159;52.414;9.784;2023-01-10T06:36:53;16.87;;;4.90;;
6251;SDS011;3159;52.414;9.784;2023-01-10T06:39:20;11.50;;;4.70;;
6251;SDS011;3159;52.414;9.784;2023-01-10T06:41:48;11.77;;;3.80;;
6251;SDS011;3159;52.414;9.784;2023-01-10T06:44:15;13.63;;;4.63;;
6251;SDS011;3159;52.414;9.784;2023-01-10T06:46:41;17.80;;;5.23;;
6251;SDS011;3159;52.414;9.784;2023-01-10T06:49:08;17.33;;;4.73;;
6251;SDS011;3159;52.414;9.784;2023-01-10T06:51:35;9.97;;;4.50;;
6251;SDS011;3159;52.414;9.784;2023-01-10T06:54:02;13.93;;;4.67;;
6251;SDS011;3159;52.414;9.784;2023-01-10T06:56:29;11.97;;;4.80;;
6251;SDS011;3159;52.414;9.784;2023-01-10T06:58:57;13.73;;;5.90;;
6251;SDS011;3159;52.414;9.784;2023-01-10T07:01:24;11.97;;;5.30;;
6251;SDS011;3159;52.414;9.784;2023-01-10T07:03:52;14.87;;;5.43;;
6251;SDS011;3159;52.414;9.784;2023-01-10T07:06:18;17.40;;;5.07;;
6251;SDS011;3159;52.414;9.784;2023-01-10T07:08:45;12.00;;;4.97;;
6251;SDS011;3159;52.414;9.784;2023-01-10T07:11:13;13.63;;;5.07;;
6251;SDS011;3159;52.414;9.784;2023-01-10T07:13:40;15.07;;;6.20;;
6251;SDS011;3159;52.414;9.784;2023-01-10T07:16:09;16.10;;;5.97;;
6251;SDS011;3159;52.414;9.784;2023-01-10T07:18:37;17.47;;;6.30;;
6251;SDS011;3159;52.414;9.784;2023-01-10T07:21:06;18.60;;;6.53;;
6251;SDS011;3159;52.414;9.784;2023-01-10T07:23:33;10.83;;;5.93;;
6251;SDS011;3159;52.414;9.784;2023-01-10T07:26:01;15.13;;;6.37;;
6251;SDS011;3159;52.414;9.784;2023-01-10T07:28:29;14.87;;;6.73;;
6251;SDS011;3159;52.414;9.784;2023-01-10T07:30:58;15.87;;;6.97;;
6251;SDS011;3159;52.414;9.784;2023-01-10T07:33:27;16.53;;;6.50;;
6251;SDS011;3159;52.414;9.784;2023-01-10T07:35:54;14.33;;;6.10;;
6251;SDS011;3159;52.414;9.784;2023-01-10T07:38:21;10.47;;;6.10;;
6251;SDS011;3159;52.414;9.784;2023-01-10T07:40:48;14.70;;;6.07;;
6251;SDS011;3159;52.414;9.784;2023-01-10T07:43:14;18.70;;;6.30;;
6251;SDS011;3159;52.414;9.784;2023-01-10T07:45:41;11.73;;;7.03;;
6251;SDS011;3159;52.414;9.784;2023-01-10T07:48:08;15.87;;;6.67;;
6251;SDS011;3159;52.414;9.784;2023-01-10T07:50:37;15.63;;;6.93;;
6251;SDS011;3159;52.414;9.784;2023-01-10T07:53:05;19.50;;;7.10;;
6251;SDS011;3159;52.414;9.784;2023-01-10T07:55:32;18.13;;;6.80;;
6251;SDS011;3159;52.414;9.784;2023-01-10T07:58:03;19.33;;;7.00;;
6251;SDS011;3159;52.414;9.784;2023-01-10T08:00:31;14.40;;;6.13;;
6251;SDS011;3159;52.414;9.784;2023-01-10T08:02:59;12.23;;;6.47;;
6251;SDS011;3159;52.414;9.784;2023-01-10T08:05:25;17.77;;;6.20;;
6251;SDS011;3159;52.414;9.784;2023-01-10T08:07:53;20.23;;;6.47;;
6251;SDS011;3159;52.414;9.784;2023-01-10T08:10:24;11.93;;;6.73;;
6251;SDS011;3159;52.414;9.784;2023-01-10T08:12:51;13.57;;;6.87;;
6251;SDS011;3159;52.414;9.784;2023-01-10T08:15:17;18.17;;;7.07;;
6251;SDS011;3159;52.414;9.784;2023-01-10T08:17:44;16.77;;;6.33;;
6251;SDS011;3159;52.414;9.784;2023-01-10T08:20:11;18.27;;;7.20;;
6251;SDS011;3159;52.414;9.784;2023-01-10T08:22:38;16.27;;;6.43;;
6251;SDS011;3159;52.414;9.784;2023-01-10T08:25:06;15.77;;;6.20;;
6251;SDS011;3159;52.414;9.784;2023-01-10T08:27:34;16.33;;;5.90;;
6251;SDS011;3159;52.414;9.784;2023-01-10T08:30:01;15.53;;;6.10;;
6251;SDS011;3159;52.414;9.784;2023-01-10T08:32:28;16.57;;;6.53;;
6251;SDS011;3159;52.414;9.784;2023-01-10T08:34:55;17.97;;;6.07;;
6251;SDS011;3159;52.414;9.784;2023-01-10T08:37:22;17.97;;;7.23;;
6251;SDS011;3159;52.414;9.784;2023-01-10T08:39:48;13.93;;;6.30;;
6251;SDS011;3159;52.414;9.784;2023-01-10T08:42:16;17.47;;;6.53;;
6251;SDS011;3159;52.414;9.784;2023-01-10T08:44:43;21.53;;;6.37;;
6251;SDS011;3159;52.414;9.784;2023-01-10T08:47:10;15.83;;;6.73;;
6251;SDS011;3159;52.414;9.784;2023-01-10T08:49:37;13.93;;;6.37;;
6251;SDS011;3159;52.414;9.784;2023-01-10T08:52:04;16.37;;;6.37;;
6251;SDS011;3159;52.414;9.784;2023-01-10T08:54:31;19.23;;;7.07;;
6251;SDS011;3159;52.414;9.784;2023-01-10T08:56:58;15.97;;;6.20;;
6251;SDS011;3159;52.414;9.784;2023-01-10T08:59:26;18.67;;;6.30;;
6251;SDS011;3159;52.414;9.784;2023-01-10T09:01:53;13.30;;;6.67;;
6251;SDS011;3159;52.414;9.784;2023-01-10T09:04:22;14.90;;;7.07;;
6251;SDS011;3159;52.414;9.784;2023-01-10T09:06:50;17.03;;;6.90;;
6251;SDS011;3159;52.414;9.784;2023-01-10T09:09:17;17.80;;;7.60;;
6251;SDS011;3159;52.414;9.784;2023-01-10T09:11:43;15.13;;;6.43;;
6251;SDS011;3159;52.414;9.784;2023-01-10T09:14:10;12.53;;;5.83;;
6251;SDS011;3159;52.414;9.784;2023-01-10T09:16:38;16.07;;;6.83;;
6251;SDS011;3159;52.414;9.784;2023-01-10T09:19:05;15.20;;;7.30;;
6251;SDS011;3159;52.414;9.784;2023-01-10T09:21:32;16.00;;;6.57;;
6251;SDS011;3159;52.414;9.784;2023-01-10T09:23:59;20.03;;;7.37;;
6251;SDS011;3159;52.414;9.784;2023-01-10T09:26:25;16.63;;;6.80;;
6251;SDS011;3159;52.414;9.784;2023-01-10T09:28:52;17.80;;;7.30;;
6251;SDS011;3159;52.414;9.784;2023-01-10T09:31:19;19.40;;;8.23;;
6251;SDS011;3159;52.414;9.784;2023-01-10T09:33:47;17.47;;;7.33;;
6251;SDS011;3159;52.414;9.784;2023-01-10T09:36:14;20.37;;;7.60;;
6251;SDS011;3159;52.414;9.784;2023-01-10T09:38:41;17.80;;;7.57;;
6251;SDS011;3159;52.414;9.784;2023-01-10T09:41:13;16.53;;;7.87;;
6251;SDS011;3159;52.414;9.784;2023-01-10T09:43:53;17.67;;;7.77;;
6251;SDS011;3159;52.414;9.784;2023-01-10T09:46:30;19.80;;;8.37;;
6251;SDS011;3159;52.414;9.784;2023-01-10T09:49:09;15.37;;;8.50;;
6251;SDS011;3159;52.414;9.784;2023-01-10T09:51:47;20.13;;;8.80;;
6251;SDS011;3159;52.414;9.784;2023-01-10T09:54:16;19.93;;;8.47;;
6251;SDS011;3159;52.414;9.784;2023-01-10T09:56:45;17.67;;;8.80;;
6251;SDS011;3159;52.414;9.784;2023-01-10T09:59:14;21.83;;;9.20;;
6251;SDS011;3159;52.414;9.784;2023-01-10T10:01:43;20.83;;;9.47;;
6251;SDS011;3159;52.414;9.784;2023-01-10T10:04:18;16.93;;;9.50;;
6251;SDS011;3159;52.414;9.784;2023-01-10T10:06:48;16.87;;;9.60;;
6251;SDS011;3159;52.414;9.784;2023-01-10T10:09:16;16.50;;;8.87;;
6251;SDS011;3159;52.414;9.784;2023-01-10T10:11:50;22.77;;;9.63;;
6251;SDS011;3159;52.414;9.784;2023-01-10T10:14:30;21.10;;;9.40;;
6251;SDS011;3159;52.414;9.784;2023-01-10T10:17:09;19.10;;;9.30;;
6251;SDS011;3159;52.414;9.784;2023-01-10T10:19:50;16.73;;;9.60;;
6251;SDS011;3159;52.414;9.784;2023-01-10T10:22:27;19.50;;;9.23;;
6251;SDS011;3159;52.414;9.784;2023-01-10T10:25:02;15.03;;;9.90;;
6251;SDS011;3159;52.414;9.784;2023-01-10T10:27:40;17.47;;;9.63;;
6251;SDS011;3159;52.414;9.784;2023-01-10T10:30:27;21.07;;;9.90;;
6251;SDS011;3159;52.414;9.784;2023-01-10T10:36:03;24.43;;;10.70;;
6251;SDS011;3159;52.414;9.784;2023-01-10T10:38:37;20.40;;;10.30;;
6251;SDS011;3159;52.414;9.784;2023-01-10T10:41:08;17.43;;;10.13;;
6251;SDS011;3159;52.414;9.784;2023-01-10T10:43:42;21.53;;;10.17;;
6251;SDS011;3159;52.414;9.784;2023-01-10T10:46:13;22.93;;;11.00;;
6251;SDS011;3159;52.414;9.784;2023-01-10T10:48:44;20.03;;;10.80;;
6251;SDS011;3159;52.414;9.784;2023-01-10T10:51:20;20.07;;;10.07;;
6251;SDS011;3159;52.414;9.784;2023-01-10T10:53:51;26.33;;;9.90;;
6251;SDS011;3159;52.414;9.784;2023-01-10T10:56:20;21.20;;;10.33;;
6251;SDS011;3159;52.414;9.784;2023-01-10T10:58:50;17.93;;;8.63;;
6251;SDS011;3159;52.414;9.784;2023-01-10T11:01:20;19.80;;;10.07;;
6251;SDS011;3159;52.414;9.784;2023-01-10T11:03:48;18.57;;;9.60;;
6251;SDS011;3159;52.414;9.784;2023-01-10T11:06:21;17.80;;;10.00;;
6251;SDS011;3159;52.414;9.784;2023-01-10T11:08:50;19.97;;;9.87;;
6251;SDS011;3159;52.414;9.784;2023-01-10T11:11:22;23.97;;;9.30;;
6251;SDS011;3159;52.414;9.784;2023-01-10T11:13:52;16.23;;;8.70;;
6251;SDS011;3159;52.414;9.784;2023-01-10T11:16:25;18.97;;;7.90;;
6251;SDS011;3159;52.414;9.784;2023-01-10T11:19:12;20.90;;;8.60;;
6251;SDS011;3159;52.414;9.784;2023-01-10T11:21:46;18.17;;;8.83;;
6251;SDS011;3159;52.414;9.784;2023-01-10T11:24:22;15.03;;;7.90;;
6251;SDS011;3159;52.414;9.784;2023-01-10T11:26:52;13.43;;;7.80;;
6251;SDS011;3159;52.414;9.784;2023-01-10T11:29:21;22.27;;;7.80;;
6251;SDS011;3159;52.414;9.784;2023-01-10T11:31:52;15.17;;;8.10;;
6251;SDS011;3159;52.414;9.784;2023-01-10T11:34:21;21.40;;;8.77;;
6251;SDS011;3159;52.414;9.784;2023-01-10T11:36:58;19.07;;;8.50;;
6251;SDS011;3159;52.414;9.784;2023-01-10T11:39:27;20.57;;;8.50;;
6251;SDS011;3159;52.414;9.784;2023-01-10T11:41:55;20.80;;;8.60;;
6251;SDS011;3159;52.414;9.784;2023-01-10T11:44:24;22.63;;;8.93;;
6251;SDS011;3159;52.414;9.784;2023-01-10T11:46:53;17.00;;;8.33;;
6251;SDS011;3159;52.414;9.784;2023-01-10T11:49:24;20.77;;;9.07;;
6251;SDS011;3159;52.414;9.784;2023-01-10T11:51:55;24.03;;;8.57;;
6251;SDS011;3159;52.414;9.784;2023-01-10T11:54:27;17.43;;;8.57;;
6251;SDS011;3159;52.414;9.784;2023-01-10T11:56:57;22.27;;;9.13;;
6251;SDS011;3159;52.414;9.784;2023-01-10T11:59:26;15.87;;;8.37;;
6251;SDS011;3159;52.414;9.784;2023-01-10T12:01:54;20.57;;;9.07;;
6251;SDS011;3159;52.414;9.784;2023-01-10T12:04:24;20.77;;;9.20;;
6251;SDS011;3159;52.414;9.784;2023-01-10T12:06:54;19.43;;;9.10;;
6251;SDS011;3159;52.414;9.784;2023-01-10T12:09:33;27.00;;;9.47;;
6251;SDS011;3159;52.414;9.784;2023-01-10T12:12:01;22.13;;;8.93;;
6251;SDS011;3159;52.414;9.784;2023-01-10T12:14:29;15.23;;;8.23;;
6251;SDS011;3159;52.414;9.784;2023-01-10T12:16:57;25.40;;;9.20;;
6251;SDS011;3159;52.414;9.784;2023-01-10T12:19:25;21.13;;;8.13;;
6251;SDS011;3159;52.414;9.784;2023-01-10T12:21:53;16.07;;;8.30;;
6251;SDS011;3159;52.414;9.784;2023-01-10T12:24:25;20.63;;;8.83;;
6251;SDS011;3159;52.414;9.784;2023-01-10T12:26:58;22.73;;;7.93;;
6251;SDS011;3159;52.414;9.784;2023-01-10T12:29:27;16.50;;;8.70;;
6251;SDS011;3159;52.414;9.784;2023-01-10T12:31:58;23.47;;;7.57;;
6251;SDS011;3159;52.414;9.784;2023-01-10T12:34:27;26.13;;;7.50;;
6251;SDS011;3159;52.414;9.784;2023-01-10T12:37:04;25.10;;;8.07;;
6251;SDS011;3159;52.414;9.784;2023-01-10T12:39:39;22.20;;;7.03;;
6251;SDS011;3159;52.414;9.784;2023-01-10T12:42:15;16.23;;;7.57;;
6251;SDS011;3159;52.414;9.784;2023-01-10T12:45:11;18.60;;;7.20;;
6251;SDS011;3159;52.414;9.784;2023-01-10T12:47:46;18.37;;;6.83;;
6251;SDS011;3159;52.414;9.784;2023-01-10T12:50:19;16.17;;;6.67;;
6251;SDS011;3159;52.414;9.784;2023-01-10T12:52:50;22.33;;;7.30;;
6251;SDS011;3159;52.414;9.784;2023-01-10T12:55:22;18.63;;;7.27;;
6251;SDS011;3159;52.414;9.784;2023-01-10T12:57:54;19.03;;;6.37;;
6251;SDS011;3159;52.414;9.784;2023-01-10T13:00:25;18.23;;;6.93;;
6251;SDS011;3159;52.414;9.784;2023-01-10T13:02:55;18.70;;;7.37;;
6251;SDS011;3159;52.414;9.784;2023-01-10T13:05:26;15.93;;;6.30;;
6251;SDS011;3159;52.414;9.784;2023-01-10T13:07:54;19.70;;;7.00;;
6251;SDS011;3159;52.414;9.784;2023-01-10T13:10:25;18.97;;;6.87;;
6251;SDS011;3159;52.414;9.784;2023-01-10T13:12:56;22.23;;;6.63;;
6251;SDS011;3159;52.414;9.784;2023-01-10T13:15:27;24.20;;;6.53;;
6251;SDS011;3159;52.414;9.784;2023-01-10T13:17:58;14.20;;;5.90;;
6251;SDS011;3159;52.414;9.784;2023-01-10T13:20:38;19.03;;;6.30;;
6251;SDS011;3159;52.414;9.784;2023-01-10T13:23:14;12.97;;;5.40;;
6251;SDS011;3159;52.414;9.784;2023-01-10T13:25:55;13.83;;;5.40;;
6251;SDS011;3159;52.414;9.784;2023-01-10T13:28:26;14.70;;;5.47;;
6251;SDS011;3159;52.414;9.784;2023-01-10T13:30:55;16.43;;;5.30;;
6251;SDS011;3159;52.414;9.784;2023-01-10T13:33:25;14.17;;;5.50;;
6251;SDS011;3159;52.414;9.784;2023-01-10T13:35:55;22.83;;;6.07;;
6251;SDS011;3159;52.414;9.784;2023-01-10T13:38:25;19.17;;;5.70;;
6251;SDS011;3159;52.414;9.784;2023-01-10T13:40:56;17.03;;;5.63;;
6251;SDS011;3159;52.414;9.784;2023-01-10T13:43:57;18.47;;;5.80;;
6251;SDS011;3159;52.414;9.784;2023-01-10T13:52:20;18.33;;;5.43;;
6251;SDS011;3159;52.414;9.784;2023-01-10T13:54:55;16.03;;;5.73;;
6251;SDS011;3159;52.414;9.784;2023-01-10T14:03:40;16.63;;;5.30;;
6251;SDS011;3159;52.414;9.784;2023-01-10T14:06:16;15.50;;;5.53;;
6251;SDS011;3159;52.414;9.784;2023-01-10T14:08:50;15.37;;;5.67;;
6251;SDS011;3159;52.414;9.784;2023-01-10T14:11:19;16.30;;;5.27;;
6251;SDS011;3159;52.414;9.784;2023-01-10T14:13:49;13.50;;;5.53;;
6251;SDS011;3159;52.414;9.784;2023-01-10T14:16:33;17.97;;;5.47;;
6251;SDS011;3159;52.414;9.784;2023-01-10T14:19:02;18.77;;;6.53;;
6251;SDS011;3159;52.414;9.784;2023-01-10T14:21:33;15.00;;;5.57;;
6251;SDS011;3159;52.414;9.784;2023-01-10T14:24:08;18.23;;;6.03;;
6251;SDS011;3159;52.414;9.784;2023-01-10T14:26:48;19.33;;;5.77;;
6251;SDS011;3159;52.414;9.784;2023-01-10T14:29:15;16.03;;;5.53;;
6251;SDS011;3159;52.414;9.784;2023-01-10T14:31:46;19.80;;;5.73;;
6251;SDS011;3159;52.414;9.784;2023-01-10T14:34:18;14.57;;;4.90;;
6251;SDS011;3159;52.414;9.784;2023-01-10T14:36:48;17.80;;;5.07;;
6251;SDS011;3159;52.414;9.784;2023-01-10T14:39:18;16.30;;;4.67;;
6251;SDS011;3159;52.414;9.784;2023-01-10T14:41:47;16.17;;;5.37;;
6251;SDS011;3159;52.414;9.784;2023-01-10T14:44:17;12.23;;;4.67;;
6251;SDS011;3159;52.414;9.784;2023-01-10T14:46:49;15.20;;;5.10;;
6251;SDS011;3159;52.414;9.784;2023-01-10T14:49:18;17.70;;;5.67;;
6251;SDS011;3159;52.414;9.784;2023-01-10T14:51:50;13.33;;;4.67;;
6251;SDS011;3159;52.414;9.784;2023-01-10T14:54:18;13.77;;;4.93;;
6251;SDS011;3159;52.414;9.784;2023-01-10T14:56:48;12.23;;;5.33;;
6251;SDS011;3159;52.414;9.784;2023-01-10T14:59:17;16.07;;;5.00;;
6251;SDS011;3159;52.414;9.784;2023-01-10T15:01:50;19.87;;;9.47;;
6251;SDS011;3159;52.414;9.784;2023-01-10T15:04:19;11.90;;;5.20;;
6251;SDS011;3159;52.414;9.784;2023-01-10T15:06:49;17.40;;;5.07;;
6251;SDS011;3159;52.414;9.784;2023-01-10T15:09:20;14.03;;;4.97;;
6251;SDS011;3159;52.414;9.784;2023-01-10T15:11:47;15.27;;;5.33;;
6251;SDS011;3159;52.414;9.784;2023-01-10T15:14:16;13.53;;;4.93;;
6251;SDS011;3159;52.414;9.784;2023-01-10T15:16:47;13.20;;;4.73;;
6251;SDS011;3159;52.414;9.784;2023-01-10T15:19:18;12.97;;;4.80;;
6251;SDS011;3159;52.414;9.784;2023-01-10T15:21:47;15.60;;;5.47;;
6251;SDS011;3159;52.414;9.784;2023-01-10T15:24:29;20.43;;;5.30;;
6251;SDS011;3159;52.414;9.784;2023-01-10T15:26:58;16.40;;;4.87;;
6251;SDS011;3159;52.414;9.784;2023-01-10T15:29:27;10.23;;;4.60;;
6251;SDS011;3159;52.414;9.784;2023-01-10T15:31:56;15.03;;;5.17;;
6251;SDS011;3159;52.414;9.784;2023-01-10T15:34:33;11.37;;;4.47;;
6251;SDS011;3159;52.414;9.784;2023-01-10T15:37:00;12.03;;;4.70;;
6251;SDS011;3159;52.414;9.784;2023-01-10T15:39:28;17.80;;;4.60;;